sensor_id;sensor_type;location;lat;lon;timestamp;P1;durP1;ratioP1;P2;durP2;ratioP2
61915;SDS011;47868;51.326;6.550;2023-12-20T00:02:25;16.65;;;13.52;;
61915;SDS011;47868;51.326;6.550;2023-12-20T00:04:51;19.73;;;15.52;;
61915;SDS011;47868;51.326;6.550;2023-12-20T00:07:17;21.15;;;13.30;;
61915;SDS011;47868;51.326;6.550;2023-12-20T00:09:43;21.27;;;14.30;;
61915;SDS011;47868;51.326;6.550;2023-12-20T00:12:09;16.05;;;11.88;;
61915;SDS011;47868;51.326;6.550;2023-12-20T00:14:35;15.15;;;10.32;;
61915;SDS011;47868;51.326;6.550;2023-12-20T00:17:01;15.27;;;9.60;;
61915;SDS011;47868;51.326;6.550;2023-12-20T00:19:27;19.25;;;9.73;;
61915;SDS011;47868;51.326;6.550;2023-12-20T00:21:53;15.95;;;10.15;;
61915;SDS011;47868;51.326;6.550;2023-12-20T00:24:19;17.05;;;9.95;;
61915;SDS011;47868;51.326;6.550;2023-12-20T00:26:45;17.58;;;9.93;;
61915;SDS011;47868;51.326;6.550;2023-12-20T00:29:11;17.52;;;11.48;;
61915;SDS011;47868;51.326;6.550;2023-12-20T00:31:37;14.63;;;10.43;;
61915;SDS011;47868;51.326;6.550;2023-12-20T00:34:03;15.73;;;9.85;;
61915;SDS011;47868;51.326;6.550;2023-12-20T00:36:29;15.80;;;9.27;;
61915;SDS011;47868;51.326;6.550;2023-12-20T00:38:55;17.70;;;8.50;;
61915;SDS011;47868;51.326;6.550;2023-12-20T00:41:22;12.02;;;8.43;;
61915;SDS011;47868;51.326;6.550;2023-12-20T00:43:48;11.98;;;8.57;;
61915;SDS011;47868;51.326;6.550;2023-12-20T00:46:14;14.57;;;9.68;;
61915;SDS011;47868;51.326;6.550;2023-12-20T00:48:39;18.10;;;12.00;;
61915;SDS011;47868;51.326;6.550;2023-12-20T00:51:07;18.30;;;12.13;;
61915;SDS011;47868;51.326;6.550;2023-12-20T00:53:33;16.98;;;11.65;;
61915;SDS011;47868;51.326;6.550;2023-12-20T00:55:59;17.52;;;13.40;;
61915;SDS011;47868;51.326;6.550;2023-12-20T00:58:25;18.63;;;14.15;;
61915;SDS011;47868;51.326;6.550;2023-12-20T01:00:52;22.85;;;14.18;;
61915;SDS011;47868;51.326;6.550;2023-12-20T01:03:19;21.55;;;15.93;;
61915;SDS011;47868;51.326;6.550;2023-12-20T01:05:45;21.27;;;18.17;;
61915;SDS011;47868;51.326;6.550;2023-12-20T01:08:11;31.33;;;21.48;;
61915;SDS011;47868;51.326;6.550;2023-12-20T01:10:37;27.77;;;17.98;;
61915;SDS011;47868;51.326;6.550;2023-12-20T01:13:03;22.63;;;16.98;;
61915;SDS011;47868;51.326;6.550;2023-12-20T01:15:29;20.75;;;17.33;;
61915;SDS011;47868;51.326;6.550;2023-12-20T01:17:55;24.10;;;18.42;;
61915;SDS011;47868;51.326;6.550;2023-12-20T01:20:23;25.73;;;18.67;;
61915;SDS011;47868;51.326;6.550;2023-12-20T01:22:50;22.05;;;18.00;;
61915;SDS011;47868;51.326;6.550;2023-12-20T01:25:17;30.75;;;19.92;;
61915;SDS011;47868;51.326;6.550;2023-12-20T01:27:44;23.83;;;16.63;;
61915;SDS011;47868;51.326;6.550;2023-12-20T01:30:10;31.23;;;18.80;;
61915;SDS011;47868;51.326;6.550;2023-12-20T01:32:36;23.70;;;14.75;;
61915;SDS011;47868;51.326;6.550;2023-12-20T01:35:02;20.23;;;13.82;;
61915;SDS011;47868;51.326;6.550;2023-12-20T01:37:28;20.92;;;12.77;;
61915;SDS011;47868;51.326;6.550;2023-12-20T01:39:54;22.27;;;12.27;;
61915;SDS011;47868;51.326;6.550;2023-12-20T01:42:20;22.73;;;11.18;;
61915;SDS011;47868;51.326;6.550;2023-12-20T01:44:47;20.98;;;10.38;;
61915;SDS011;47868;51.326;6.550;2023-12-20T01:47:13;21.98;;;10.18;;
61915;SDS011;47868;51.326;6.550;2023-12-20T01:49:39;19.15;;;9.23;;
61915;SDS011;47868;51.326;6.550;2023-12-20T01:52:06;19.02;;;9.02;;
61915;SDS011;47868;51.326;6.550;2023-12-20T01:54:32;24.00;;;10.18;;
61915;SDS011;47868;51.326;6.550;2023-12-20T01:56:58;17.75;;;9.88;;
61915;SDS011;47868;51.326;6.550;2023-12-20T01:59:24;21.30;;;9.27;;
61915;SDS011;47868;51.326;6.550;2023-12-20T02:01:50;20.85;;;9.75;;
61915;SDS011;47868;51.326;6.550;2023-12-20T02:04:16;19.60;;;8.85;;
61915;SDS011;47868;51.326;6.550;2023-12-20T02:06:42;15.43;;;7.90;;
61915;SDS011;47868;51.326;6.550;2023-12-20T02:09:08;16.33;;;7.95;;
61915;SDS011;47868;51.326;6.550;2023-12-20T02:11:34;18.25;;;8.15;;
61915;SDS011;47868;51.326;6.550;2023-12-20T02:14:01;18.17;;;8.63;;
61915;SDS011;47868;51.326;6.550;2023-12-20T02:16:27;23.55;;;8.15;;
61915;SDS011;47868;51.326;6.550;2023-12-20T02:18:53;17.65;;;7.57;;
61915;SDS011;47868;51.326;6.550;2023-12-20T02:21:24;17.23;;;7.40;;
61915;SDS011;47868;51.326;6.550;2023-12-20T02:23:50;19.95;;;7.07;;
61915;SDS011;47868;51.326;6.550;2023-12-20T02:26:16;18.25;;;6.22;;
61915;SDS011;47868;51.326;6.550;2023-12-20T02:28:43;13.00;;;5.30;;
61915;SDS011;47868;51.326;6.550;2023-12-20T02:31:09;19.40;;;5.68;;
61915;SDS011;47868;51.326;6.550;2023-12-20T02:33:35;21.77;;;5.03;;
61915;SDS011;47868;51.326;6.550;2023-12-20T02:36:01;16.83;;;4.72;;
61915;SDS011;47868;51.326;6.550;2023-12-20T02:38:27;12.40;;;4.90;;
61915;SDS011;47868;51.326;6.550;2023-12-20T02:40:53;16.63;;;4.75;;
61915;SDS011;47868;51.326;6.550;2023-12-20T02:43:19;12.98;;;4.68;;
61915;SDS011;47868;51.326;6.550;2023-12-20T02:45:45;14.07;;;4.40;;
61915;SDS011;47868;51.326;6.550;2023-12-20T02:48:11;8.43;;;4.38;;
61915;SDS011;47868;51.326;6.550;2023-12-20T02:50:37;14.13;;;4.20;;
61915;SDS011;47868;51.326;6.550;2023-12-20T02:53:03;18.85;;;5.00;;
61915;SDS011;47868;51.326;6.550;2023-12-20T02:55:29;13.73;;;3.90;;
61915;SDS011;47868;51.326;6.550;2023-12-20T02:57:55;13.88;;;3.75;;
61915;SDS011;47868;51.326;6.550;2023-12-20T03:00:21;13.93;;;4.03;;
61915;SDS011;47868;51.326;6.550;2023-12-20T03:02:47;13.10;;;4.47;;
61915;SDS011;47868;51.326;6.550;2023-12-20T03:05:13;18.35;;;4.85;;
61915;SDS011;47868;51.326;6.550;2023-12-20T03:07:39;13.43;;;3.38;;
61915;SDS011;47868;51.326;6.550;2023-12-20T03:10:05;15.15;;;4.82;;
61915;SDS011;47868;51.326;6.550;2023-12-20T03:12:33;18.23;;;4.40;;
61915;SDS011;47868;51.326;6.550;2023-12-20T03:14:59;14.50;;;3.90;;
61915;SDS011;47868;51.326;6.550;2023-12-20T03:17:25;17.17;;;3.95;;
61915;SDS011;47868;51.326;6.550;2023-12-20T03:19:51;16.88;;;4.93;;
61915;SDS011;47868;51.326;6.550;2023-12-20T03:22:17;14.23;;;4.30;;
61915;SDS011;47868;51.326;6.550;2023-12-20T03:24:43;18.52;;;4.45;;
61915;SDS011;47868;51.326;6.550;2023-12-20T03:27:09;19.15;;;4.28;;
61915;SDS011;47868;51.326;6.550;2023-12-20T03:29:35;10.63;;;3.78;;
61915;SDS011;47868;51.326;6.550;2023-12-20T03:32:01;16.38;;;3.92;;
61915;SDS011;47868;51.326;6.550;2023-12-20T03:34:27;16.92;;;3.97;;
61915;SDS011;47868;51.326;6.550;2023-12-20T03:36:54;12.23;;;3.95;;
61915;SDS011;47868;51.326;6.550;2023-12-20T03:39:20;10.60;;;3.95;;
61915;SDS011;47868;51.326;6.550;2023-12-20T03:41:46;19.15;;;4.82;;
61915;SDS011;47868;51.326;6.550;2023-12-20T03:44:12;10.90;;;4.07;;
61915;SDS011;47868;51.326;6.550;2023-12-20T03:46:38;13.13;;;3.50;;
61915;SDS011;47868;51.326;6.550;2023-12-20T03:49:04;21.00;;;4.10;;
61915;SDS011;47868;51.326;6.550;2023-12-20T03:51:30;19.75;;;4.32;;
61915;SDS011;47868;51.326;6.550;2023-12-20T03:53:56;13.90;;;4.30;;
61915;SDS011;47868;51.326;6.550;2023-12-20T03:56:22;17.23;;;4.60;;
61915;SDS011;47868;51.326;6.550;2023-12-20T03:58:48;19.45;;;4.72;;
61915;SDS011;47868;51.326;6.550;2023-12-20T04:01:14;12.93;;;3.85;;
61915;SDS011;47868;51.326;6.550;2023-12-20T04:03:40;14.80;;;4.20;;
61915;SDS011;47868;51.326;6.550;2023-12-20T04:06:06;19.13;;;5.15;;
61915;SDS011;47868;51.326;6.550;2023-12-20T04:08:32;19.33;;;5.32;;
61915;SDS011;47868;51.326;6.550;2023-12-20T04:10:58;20.92;;;4.55;;
61915;SDS011;47868;51.326;6.550;2023-12-20T04:13:24;18.73;;;5.15;;
61915;SDS011;47868;51.326;6.550;2023-12-20T04:15:50;24.48;;;5.18;;
61915;SDS011;47868;51.326;6.550;2023-12-20T04:18:16;16.85;;;5.50;;
61915;SDS011;47868;51.326;6.550;2023-12-20T04:20:42;18.70;;;5.13;;
61915;SDS011;47868;51.326;6.550;2023-12-20T04:23:08;21.30;;;5.65;;
61915;SDS011;47868;51.326;6.550;2023-12-20T04:25:34;20.30;;;5.53;;
61915;SDS011;47868;51.326;6.550;2023-12-20T04:28:00;10.95;;;4.60;;
61915;SDS011;47868;51.326;6.550;2023-12-20T04:30:26;20.40;;;6.15;;
61915;SDS011;47868;51.326;6.550;2023-12-20T04:32:52;23.08;;;6.75;;
61915;SDS011;47868;51.326;6.550;2023-12-20T04:35:18;18.25;;;6.18;;
61915;SDS011;47868;51.326;6.550;2023-12-20T04:37:44;24.50;;;6.97;;
61915;SDS011;47868;51.326;6.550;2023-12-20T04:40:10;19.88;;;6.75;;
61915;SDS011;47868;51.326;6.550;2023-12-20T04:42:37;16.60;;;6.65;;
61915;SDS011;47868;51.326;6.550;2023-12-20T04:45:03;19.80;;;7.03;;
61915;SDS011;47868;51.326;6.550;2023-12-20T04:47:29;17.00;;;7.35;;
61915;SDS011;47868;51.326;6.550;2023-12-20T04:49:55;16.95;;;7.78;;
61915;SDS011;47868;51.326;6.550;2023-12-20T04:52:21;16.95;;;6.65;;
61915;SDS011;47868;51.326;6.550;2023-12-20T04:54:47;26.90;;;8.20;;
61915;SDS011;47868;51.326;6.550;2023-12-20T04:57:13;23.75;;;7.22;;
61915;SDS011;47868;51.326;6.550;2023-12-20T04:59:39;25.52;;;7.13;;
61915;SDS011;47868;51.326;6.550;2023-12-20T05:02:06;14.52;;;6.85;;
61915;SDS011;47868;51.326;6.550;2023-12-20T05:04:32;22.60;;;6.18;;
61915;SDS011;47868;51.326;6.550;2023-12-20T05:06:58;18.88;;;6.78;;
61915;SDS011;47868;51.326;6.550;2023-12-20T05:09:24;14.55;;;7.35;;
61915;SDS011;47868;51.326;6.550;2023-12-20T05:11:50;17.35;;;6.70;;
61915;SDS011;47868;51.326;6.550;2023-12-20T05:14:16;22.60;;;7.45;;
61915;SDS011;47868;51.326;6.550;2023-12-20T05:16:42;19.08;;;6.97;;
61915;SDS011;47868;51.326;6.550;2023-12-20T05:19:08;21.10;;;6.25;;
61915;SDS011;47868;51.326;6.550;2023-12-20T05:21:34;20.15;;;6.45;;
61915;SDS011;47868;51.326;6.550;2023-12-20T05:24:00;21.45;;;6.38;;
61915;SDS011;47868;51.326;6.550;2023-12-20T05:26:26;19.58;;;6.63;;
61915;SDS011;47868;51.326;6.550;2023-12-20T05:28:54;22.88;;;7.25;;
61915;SDS011;47868;51.326;6.550;2023-12-20T05:31:20;22.77;;;6.78;;
61915;SDS011;47868;51.326;6.550;2023-12-20T05:33:46;16.50;;;6.47;;
61915;SDS011;47868;51.326;6.550;2023-12-20T05:36:12;20.52;;;6.93;;
61915;SDS011;47868;51.326;6.550;2023-12-20T05:38:40;21.88;;;6.90;;
61915;SDS011;47868;51.326;6.550;2023-12-20T05:41:06;19.45;;;6.93;;
61915;SDS011;47868;51.326;6.550;2023-12-20T05:43:32;24.02;;;7.28;;
61915;SDS011;47868;51.326;6.550;2023-12-20T05:45:58;24.75;;;6.95;;
61915;SDS011;47868;51.326;6.550;2023-12-20T05:48:24;17.40;;;6.75;;
61915;SDS011;47868;51.326;6.550;2023-12-20T05:50:50;22.10;;;6.65;;
61915;SDS011;47868;51.326;6.550;2023-12-20T05:53:16;18.25;;;7.40;;
61915;SDS011;47868;51.326;6.550;2023-12-20T05:55:42;23.10;;;7.43;;
61915;SDS011;47868;51.326;6.550;2023-12-20T05:58:08;22.67;;;6.32;;
61915;SDS011;47868;51.326;6.550;2023-12-20T06:00:34;25.38;;;6.45;;
61915;SDS011;47868;51.326;6.550;2023-12-20T06:03:00;19.83;;;6.63;;
61915;SDS011;47868;51.326;6.550;2023-12-20T06:05:26;19.52;;;5.97;;
61915;SDS011;47868;51.326;6.550;2023-12-20T06:07:52;19.02;;;5.75;;
61915;SDS011;47868;51.326;6.550;2023-12-20T06:10:19;16.83;;;7.00;;
61915;SDS011;47868;51.326;6.550;2023-12-20T06:12:49;21.98;;;6.53;;
61915;SDS011;47868;51.326;6.550;2023-12-20T06:15:16;24.02;;;6.85;;
61915;SDS011;47868;51.326;6.550;2023-12-20T06:17:42;21.10;;;6.68;;
61915;SDS011;47868;51.326;6.550;2023-12-20T06:20:08;23.50;;;6.97;;
61915;SDS011;47868;51.326;6.550;2023-12-20T06:22:35;23.48;;;7.18;;
61915;SDS011;47868;51.326;6.550;2023-12-20T06:25:01;18.70;;;6.10;;
61915;SDS011;47868;51.326;6.550;2023-12-20T06:27:28;25.00;;;7.35;;
61915;SDS011;47868;51.326;6.550;2023-12-20T06:29:54;20.95;;;6.13;;
61915;SDS011;47868;51.326;6.550;2023-12-20T06:32:20;19.17;;;6.88;;
61915;SDS011;47868;51.326;6.550;2023-12-20T06:34:48;18.05;;;6.63;;
61915;SDS011;47868;51.326;6.550;2023-12-20T06:37:14;19.77;;;6.00;;
61915;SDS011;47868;51.326;6.550;2023-12-20T06:39:40;17.70;;;6.57;;
61915;SDS011;47868;51.326;6.550;2023-12-20T06:42:06;16.42;;;6.20;;
61915;SDS011;47868;51.326;6.550;2023-12-20T06:44:32;23.45;;;7.35;;
61915;SDS011;47868;51.326;6.550;2023-12-20T06:46:59;16.15;;;6.53;;
61915;SDS011;47868;51.326;6.550;2023-12-20T06:49:25;17.25;;;6.68;;
61915;SDS011;47868;51.326;6.550;2023-12-20T06:51:51;20.10;;;6.65;;
61915;SDS011;47868;51.326;6.550;2023-12-20T06:54:18;16.80;;;6.55;;
61915;SDS011;47868;51.326;6.550;2023-12-20T06:56:44;18.38;;;7.15;;
61915;SDS011;47868;51.326;6.550;2023-12-20T06:59:10;19.80;;;6.50;;
61915;SDS011;47868;51.326;6.550;2023-12-20T07:01:36;17.83;;;7.22;;
61915;SDS011;47868;51.326;6.550;2023-12-20T07:04:03;17.17;;;5.90;;
61915;SDS011;47868;51.326;6.550;2023-12-20T07:06:29;22.73;;;6.82;;
61915;SDS011;47868;51.326;6.550;2023-12-20T07:08:55;29.13;;;6.80;;
61915;SDS011;47868;51.326;6.550;2023-12-20T07:11:21;22.77;;;6.30;;
61915;SDS011;47868;51.326;6.550;2023-12-20T07:13:47;15.82;;;6.18;;
61915;SDS011;47868;51.326;6.550;2023-12-20T07:16:13;19.75;;;6.25;;
61915;SDS011;47868;51.326;6.550;2023-12-20T07:18:39;19.20;;;6.35;;
61915;SDS011;47868;51.326;6.550;2023-12-20T07:21:05;21.33;;;6.35;;
61915;SDS011;47868;51.326;6.550;2023-12-20T07:23:33;17.48;;;5.88;;
61915;SDS011;47868;51.326;6.550;2023-12-20T07:25:59;20.73;;;7.10;;
61915;SDS011;47868;51.326;6.550;2023-12-20T07:28:25;25.35;;;6.80;;
61915;SDS011;47868;51.326;6.550;2023-12-20T07:30:51;26.60;;;7.93;;
61915;SDS011;47868;51.326;6.550;2023-12-20T07:33:17;18.30;;;6.20;;
61915;SDS011;47868;51.326;6.550;2023-12-20T07:35:43;25.73;;;6.85;;
61915;SDS011;47868;51.326;6.550;2023-12-20T07:38:10;19.52;;;6.53;;
61915;SDS011;47868;51.326;6.550;2023-12-20T07:40:37;16.95;;;6.65;;
61915;SDS011;47868;51.326;6.550;2023-12-20T07:43:03;18.83;;;7.20;;
61915;SDS011;47868;51.326;6.550;2023-12-20T07:45:29;21.15;;;7.22;;
61915;SDS011;47868;51.326;6.550;2023-12-20T07:47:56;24.15;;;7.13;;
61915;SDS011;47868;51.326;6.550;2023-12-20T07:50:22;23.08;;;7.75;;
61915;SDS011;47868;51.326;6.550;2023-12-20T07:52:48;22.00;;;7.88;;
61915;SDS011;47868;51.326;6.550;2023-12-20T07:55:14;25.45;;;7.38;;
61915;SDS011;47868;51.326;6.550;2023-12-20T07:57:40;20.38;;;6.82;;
61915;SDS011;47868;51.326;6.550;2023-12-20T08:00:06;35.20;;;9.23;;
61915;SDS011;47868;51.326;6.550;2023-12-20T08:02:32;27.92;;;7.47;;
61915;SDS011;47868;51.326;6.550;2023-12-20T08:04:58;15.55;;;6.93;;
61915;SDS011;47868;51.326;6.550;2023-12-20T08:07:24;24.25;;;7.68;;
61915;SDS011;47868;51.326;6.550;2023-12-20T08:09:50;28.20;;;7.20;;
61915;SDS011;47868;51.326;6.550;2023-12-20T08:12:16;18.35;;;7.55;;
61915;SDS011;47868;51.326;6.550;2023-12-20T08:14:43;19.02;;;7.05;;
61915;SDS011;47868;51.326;6.550;2023-12-20T08:17:08;24.58;;;6.88;;
61915;SDS011;47868;51.326;6.550;2023-12-20T08:19:34;24.25;;;7.88;;
61915;SDS011;47868;51.326;6.550;2023-12-20T08:22:01;25.88;;;7.40;;
61915;SDS011;47868;51.326;6.550;2023-12-20T08:24:27;16.13;;;6.55;;
61915;SDS011;47868;51.326;6.550;2023-12-20T08:26:53;20.25;;;7.05;;
61915;SDS011;47868;51.326;6.550;2023-12-20T08:29:19;21.08;;;6.60;;
61915;SDS011;47868;51.326;6.550;2023-12-20T08:31:46;20.83;;;6.47;;
61915;SDS011;47868;51.326;6.550;2023-12-20T08:34:12;23.80;;;6.32;;
61915;SDS011;47868;51.326;6.550;2023-12-20T08:36:39;18.73;;;6.35;;
61915;SDS011;47868;51.326;6.550;2023-12-20T08:39:06;14.70;;;6.22;;
61915;SDS011;47868;51.326;6.550;2023-12-20T08:41:33;15.65;;;5.85;;
61915;SDS011;47868;51.326;6.550;2023-12-20T08:43:59;13.63;;;5.28;;
61915;SDS011;47868;51.326;6.550;2023-12-20T08:46:25;14.20;;;6.05;;
61915;SDS011;47868;51.326;6.550;2023-12-20T08:48:51;25.27;;;6.60;;
61915;SDS011;47868;51.326;6.550;2023-12-20T08:51:17;15.50;;;6.32;;
61915;SDS011;47868;51.326;6.550;2023-12-20T08:53:44;23.35;;;5.80;;
61915;SDS011;47868;51.326;6.550;2023-12-20T08:56:11;16.73;;;5.47;;
61915;SDS011;47868;51.326;6.550;2023-12-20T08:58:37;22.55;;;5.88;;
61915;SDS011;47868;51.326;6.550;2023-12-20T09:01:03;12.32;;;4.85;;
61915;SDS011;47868;51.326;6.550;2023-12-20T09:03:29;21.25;;;5.82;;
61915;SDS011;47868;51.326;6.550;2023-12-20T09:05:55;15.57;;;5.20;;
61915;SDS011;47868;51.326;6.550;2023-12-20T09:08:21;14.30;;;5.53;;
61915;SDS011;47868;51.326;6.550;2023-12-20T09:10:47;22.10;;;6.00;;
61915;SDS011;47868;51.326;6.550;2023-12-20T09:13:13;14.85;;;5.32;;
61915;SDS011;47868;51.326;6.550;2023-12-20T09:15:39;19.85;;;5.68;;
61915;SDS011;47868;51.326;6.550;2023-12-20T09:18:06;22.17;;;5.90;;
61915;SDS011;47868;51.326;6.550;2023-12-20T09:20:32;20.20;;;5.57;;
61915;SDS011;47868;51.326;6.550;2023-12-20T09:22:58;19.60;;;5.55;;
61915;SDS011;47868;51.326;6.550;2023-12-20T09:25:24;18.73;;;5.20;;
61915;SDS011;47868;51.326;6.550;2023-12-20T09:27:51;18.85;;;5.40;;
61915;SDS011;47868;51.326;6.550;2023-12-20T09:30:17;14.95;;;5.13;;
61915;SDS011;47868;51.326;6.550;2023-12-20T09:32:43;16.58;;;4.78;;
61915;SDS011;47868;51.326;6.550;2023-12-20T09:35:09;19.85;;;5.10;;
61915;SDS011;47868;51.326;6.550;2023-12-20T09:37:39;23.55;;;4.97;;
61915;SDS011;47868;51.326;6.550;2023-12-20T09:40:09;10.95;;;4.15;;
61915;SDS011;47868;51.326;6.550;2023-12-20T09:45:21;18.38;;;5.18;;
61915;SDS011;47868;51.326;6.550;2023-12-20T09:47:49;14.93;;;4.28;;
61915;SDS011;47868;51.326;6.550;2023-12-20T09:50:16;19.55;;;6.13;;
61915;SDS011;47868;51.326;6.550;2023-12-20T09:52:43;14.65;;;4.63;;
61915;SDS011;47868;51.326;6.550;2023-12-20T09:55:10;19.33;;;5.43;;
61915;SDS011;47868;51.326;6.550;2023-12-20T09:57:36;19.00;;;6.28;;
61915;SDS011;47868;51.326;6.550;2023-12-20T10:00:02;19.63;;;5.60;;
61915;SDS011;47868;51.326;6.550;2023-12-20T10:02:29;19.55;;;5.53;;
61915;SDS011;47868;51.326;6.550;2023-12-20T10:04:57;18.27;;;5.35;;
61915;SDS011;47868;51.326;6.550;2023-12-20T10:07:23;17.02;;;5.53;;
61915;SDS011;47868;51.326;6.550;2023-12-20T10:09:49;15.90;;;5.20;;
61915;SDS011;47868;51.326;6.550;2023-12-20T10:12:17;17.15;;;5.35;;
61915;SDS011;47868;51.326;6.550;2023-12-20T10:14:43;15.88;;;5.38;;
61915;SDS011;47868;51.326;6.550;2023-12-20T10:17:09;23.45;;;5.65;;
61915;SDS011;47868;51.326;6.550;2023-12-20T10:19:35;15.68;;;5.03;;
61915;SDS011;47868;51.326;6.550;2023-12-20T10:22:03;19.30;;;5.35;;
61915;SDS011;47868;51.326;6.550;2023-12-20T10:24:29;22.77;;;6.38;;
61915;SDS011;47868;51.326;6.550;2023-12-20T10:27:01;18.38;;;5.30;;
61915;SDS011;47868;51.326;6.550;2023-12-20T10:29:30;19.98;;;5.25;;
61915;SDS011;47868;51.326;6.550;2023-12-20T10:31:56;24.60;;;6.47;;
61915;SDS011;47868;51.326;6.550;2023-12-20T10:34:23;24.52;;;5.38;;
61915;SDS011;47868;51.326;6.550;2023-12-20T10:36:49;14.38;;;4.53;;
61915;SDS011;47868;51.326;6.550;2023-12-20T10:39:15;23.33;;;5.40;;
61915;SDS011;47868;51.326;6.550;2023-12-20T10:41:45;9.25;;;4.82;;
61915;SDS011;47868;51.326;6.550;2023-12-20T10:44:11;19.40;;;5.15;;
61915;SDS011;47868;51.326;6.550;2023-12-20T10:46:38;16.05;;;5.30;;
61915;SDS011;47868;51.326;6.550;2023-12-20T10:49:05;21.17;;;4.95;;
61915;SDS011;47868;51.326;6.550;2023-12-20T10:51:32;17.00;;;5.95;;
61915;SDS011;47868;51.326;6.550;2023-12-20T10:54:00;14.63;;;5.60;;
61915;SDS011;47868;51.326;6.550;2023-12-20T10:56:26;16.48;;;5.00;;
61915;SDS011;47868;51.326;6.550;2023-12-20T10:58:55;16.98;;;5.50;;
61915;SDS011;47868;51.326;6.550;2023-12-20T11:01:22;16.42;;;4.80;;
61915;SDS011;47868;51.326;6.550;2023-12-20T11:03:49;16.70;;;5.03;;
61915;SDS011;47868;51.326;6.550;2023-12-20T11:06:21;14.40;;;4.45;;
61915;SDS011;47868;51.326;6.550;2023-12-20T11:11:32;15.35;;;5.32;;
61915;SDS011;47868;51.326;6.550;2023-12-20T11:16:27;16.17;;;5.13;;
61915;SDS011;47868;51.326;6.550;2023-12-20T11:18:53;21.98;;;5.20;;
61915;SDS011;47868;51.326;6.550;2023-12-20T11:21:19;15.70;;;4.70;;
61915;SDS011;47868;51.326;6.550;2023-12-20T11:23:45;17.02;;;5.28;;
61915;SDS011;47868;51.326;6.550;2023-12-20T11:26:11;13.70;;;4.43;;
61915;SDS011;47868;51.326;6.550;2023-12-20T11:28:37;15.43;;;5.40;;
61915;SDS011;47868;51.326;6.550;2023-12-20T11:31:03;15.10;;;4.30;;
61915;SDS011;47868;51.326;6.550;2023-12-20T11:35:58;12.57;;;4.65;;
61915;SDS011;47868;51.326;6.550;2023-12-20T11:38:25;18.27;;;5.82;;
61915;SDS011;47868;51.326;6.550;2023-12-20T11:40:53;18.55;;;4.88;;
61915;SDS011;47868;51.326;6.550;2023-12-20T11:43:35;15.40;;;4.95;;
61915;SDS011;47868;51.326;6.550;2023-12-20T11:46:04;14.98;;;4.47;;
61915;SDS011;47868;51.326;6.550;2023-12-20T11:48:30;19.90;;;5.70;;
61915;SDS011;47868;51.326;6.550;2023-12-20T11:50:57;13.70;;;4.80;;
61915;SDS011;47868;51.326;6.550;2023-12-20T11:53:22;18.52;;;4.90;;
61915;SDS011;47868;51.326;6.550;2023-12-20T11:55:49;19.45;;;4.95;;
61915;SDS011;47868;51.326;6.550;2023-12-20T11:58:15;18.85;;;5.03;;
61915;SDS011;47868;51.326;6.550;2023-12-20T12:00:41;14.48;;;4.80;;
61915;SDS011;47868;51.326;6.550;2023-12-20T12:03:08;14.63;;;4.68;;
61915;SDS011;47868;51.326;6.550;2023-12-20T12:05:34;13.05;;;5.05;;
61915;SDS011;47868;51.326;6.550;2023-12-20T12:08:01;20.70;;;5.65;;
61915;SDS011;47868;51.326;6.550;2023-12-20T12:10:27;13.93;;;5.30;;
61915;SDS011;47868;51.326;6.550;2023-12-20T12:12:53;18.10;;;5.57;;
61915;SDS011;47868;51.326;6.550;2023-12-20T12:15:19;15.50;;;5.53;;
61915;SDS011;47868;51.326;6.550;2023-12-20T12:17:52;16.55;;;5.88;;
61915;SDS011;47868;51.326;6.550;2023-12-20T12:20:19;14.15;;;5.07;;
61915;SDS011;47868;51.326;6.550;2023-12-20T12:22:45;14.23;;;5.63;;
61915;SDS011;47868;51.326;6.550;2023-12-20T12:25:15;21.95;;;5.60;;
61915;SDS011;47868;51.326;6.550;2023-12-20T12:27:42;18.30;;;5.38;;
61915;SDS011;47868;51.326;6.550;2023-12-20T12:30:08;16.90;;;5.20;;
61915;SDS011;47868;51.326;6.550;2023-12-20T12:32:34;20.23;;;5.55;;
61915;SDS011;47868;51.326;6.550;2023-12-20T12:35:02;18.80;;;5.65;;
61915;SDS011;47868;51.326;6.550;2023-12-20T12:37:29;18.92;;;5.68;;
61915;SDS011;47868;51.326;6.550;2023-12-20T12:39:55;19.90;;;6.70;;
61915;SDS011;47868;51.326;6.550;2023-12-20T12:42:21;14.95;;;6.15;;
61915;SDS011;47868;51.326;6.550;2023-12-20T12:44:50;12.93;;;5.50;;
61915;SDS011;47868;51.326;6.550;2023-12-20T12:47:17;14.82;;;4.93;;
61915;SDS011;47868;51.326;6.550;2023-12-20T12:49:43;18.10;;;6.07;;
61915;SDS011;47868;51.326;6.550;2023-12-20T12:52:09;14.52;;;4.90;;
61915;SDS011;47868;51.326;6.550;2023-12-20T12:54:35;13.13;;;5.65;;
61915;SDS011;47868;51.326;6.550;2023-12-20T12:57:01;22.75;;;6.43;;
61915;SDS011;47868;51.326;6.550;2023-12-20T12:59:27;17.95;;;6.07;;
61915;SDS011;47868;51.326;6.550;2023-12-20T13:01:53;20.35;;;6.78;;
61915;SDS011;47868;51.326;6.550;2023-12-20T13:04:19;13.98;;;6.18;;
61915;SDS011;47868;51.326;6.550;2023-12-20T13:06:45;15.48;;;6.57;;
61915;SDS011;47868;51.326;6.550;2023-12-20T13:09:12;17.02;;;6.43;;
61915;SDS011;47868;51.326;6.550;2023-12-20T13:11:38;16.48;;;6.30;;
61915;SDS011;47868;51.326;6.550;2023-12-20T13:16:32;18.02;;;7.10;;
61915;SDS011;47868;51.326;6.550;2023-12-20T13:18:59;16.42;;;6.25;;
61915;SDS011;47868;51.326;6.550;2023-12-20T13:21:25;23.90;;;7.05;;
61915;SDS011;47868;51.326;6.550;2023-12-20T13:23:51;18.10;;;6.68;;
61915;SDS011;47868;51.326;6.550;2023-12-20T13:26:18;17.05;;;7.22;;
61915;SDS011;47868;51.326;6.550;2023-12-20T13:28:44;22.10;;;7.82;;
61915;SDS011;47868;51.326;6.550;2023-12-20T13:31:10;21.73;;;7.57;;
61915;SDS011;47868;51.326;6.550;2023-12-20T13:33:36;25.20;;;7.85;;
61915;SDS011;47868;51.326;6.550;2023-12-20T13:36:02;21.05;;;8.63;;
61915;SDS011;47868;51.326;6.550;2023-12-20T13:38:29;18.67;;;7.18;;
61915;SDS011;47868;51.326;6.550;2023-12-20T13:40:55;19.45;;;7.75;;
61915;SDS011;47868;51.326;6.550;2023-12-20T13:43:23;11.40;;;6.97;;
61915;SDS011;47868;51.326;6.550;2023-12-20T13:45:49;20.15;;;8.00;;
61915;SDS011;47868;51.326;6.550;2023-12-20T13:48:15;17.05;;;7.47;;
61915;SDS011;47868;51.326;6.550;2023-12-20T13:50:41;21.42;;;8.10;;
61915;SDS011;47868;51.326;6.550;2023-12-20T13:53:07;18.50;;;8.35;;
61915;SDS011;47868;51.326;6.550;2023-12-20T13:55:33;16.58;;;6.93;;
61915;SDS011;47868;51.326;6.550;2023-12-20T13:57:59;22.92;;;8.10;;
61915;SDS011;47868;51.326;6.550;2023-12-20T14:00:25;14.27;;;7.03;;
61915;SDS011;47868;51.326;6.550;2023-12-20T14:02:51;15.40;;;7.57;;
61915;SDS011;47868;51.326;6.550;2023-12-20T14:05:17;20.25;;;7.72;;
61915;SDS011;47868;51.326;6.550;2023-12-20T14:07:44;17.30;;;6.43;;
61915;SDS011;47868;51.326;6.550;2023-12-20T14:10:13;20.38;;;6.68;;
61915;SDS011;47868;51.326;6.550;2023-12-20T14:12:39;18.48;;;7.57;;
61915;SDS011;47868;51.326;6.550;2023-12-20T14:15:06;16.63;;;6.82;;
61915;SDS011;47868;51.326;6.550;2023-12-20T14:17:39;19.80;;;7.20;;
61915;SDS011;47868;51.326;6.550;2023-12-20T14:20:06;18.92;;;6.95;;
61915;SDS011;47868;51.326;6.550;2023-12-20T14:22:33;18.17;;;7.15;;
61915;SDS011;47868;51.326;6.550;2023-12-20T14:24:59;16.17;;;6.60;;
61915;SDS011;47868;51.326;6.550;2023-12-20T14:27:25;22.02;;;6.97;;
61915;SDS011;47868;51.326;6.550;2023-12-20T14:29:53;17.95;;;6.40;;
61915;SDS011;47868;51.326;6.550;2023-12-20T14:32:19;26.25;;;7.38;;
61915;SDS011;47868;51.326;6.550;2023-12-20T14:34:45;19.48;;;7.07;;
61915;SDS011;47868;51.326;6.550;2023-12-20T14:37:11;14.43;;;6.25;;
61915;SDS011;47868;51.326;6.550;2023-12-20T14:39:37;19.45;;;6.18;;
61915;SDS011;47868;51.326;6.550;2023-12-20T14:42:06;15.70;;;6.80;;